TUPJ/RAD METAR and TAF weather

Enter ICAO airport designator
Station Type Date Time Source
TUPJ METAR 2018/12/17 16:00 UTC NOAA

TUPJ 171600Z 16009KT 10SM SCT018 29/21 A3011 RMK Q1019


Station Type Date Time Source
TUPJ Decoded METAR 2018/12/17 16:00 UTC NOAA

Beef Island, Tortola, British Virgin Islands (TUPJ) 18-27N 064-32W
Dec 17, 2018 - 11:00 AM EST / 2018.12.17 1600 UTC
Wind: from the SSE (160 degrees) at 10 MPH (9 KT):0
Visibility: 10 mile(s):0
Sky conditions: partly cloudy
Temperature: 84 F (29 C)
Dew Point: 69 F (21 C)
Relative Humidity: 62%
Pressure (altimeter): 30.11 in. Hg (1019 hPa)
ob: TUPJ 171600Z 16009KT 10SM SCT018 29/21 A3011 RMK Q1019
cycle: 16

Station Type Date Time Source
TUPJ TAF 2018/12/17 12:57 UTC NOAA

TAF TUPJ 171100Z 1712/1812 13009KT 9999 SCT020 PROB40
TEMPO 1714/1722 SHRA


Example: see airport list